createdAt,value
2017-11-22T00:01:18.424Z,18.83
2017-11-22T00:03:46.799Z,20.67
2017-11-22T00:06:14.402Z,20.10
2017-11-22T00:08:42.023Z,23.00
2017-11-22T00:11:09.604Z,19.93
2017-11-22T00:13:37.210Z,20.70
2017-11-22T00:16:04.798Z,18.57
2017-11-22T00:18:32.362Z,20.83
2017-11-22T00:20:59.955Z,25.53
2017-11-22T00:23:27.615Z,22.60
2017-11-22T00:25:55.197Z,21.33
2017-11-22T00:28:22.788Z,24.40
2017-11-22T00:30:50.383Z,16.33
2017-11-22T00:33:18.840Z,19.03
2017-11-22T00:35:46.392Z,21.90
2017-11-22T00:38:13.988Z,19.23
2017-11-22T00:40:41.573Z,26.00
2017-11-22T00:43:09.174Z,20.90
2017-11-22T00:45:37.552Z,20.77
2017-11-22T00:48:05.903Z,21.73
2017-11-22T00:50:33.478Z,23.20
2017-11-22T00:53:01.822Z,19.17
2017-11-22T00:55:29.386Z,18.73
2017-11-22T00:57:57.067Z,18.00
2017-11-22T01:00:25.402Z,20.47
2017-11-22T01:02:52.988Z,17.43
2017-11-22T01:05:20.571Z,22.53
2017-11-22T01:07:48.150Z,19.13
2017-11-22T01:10:16.515Z,23.40
2017-11-22T01:12:44.889Z,18.60
2017-11-22T01:15:12.498Z,21.60
2017-11-22T01:17:40.075Z,20.63
2017-11-22T01:20:08.456Z,18.80
2017-11-22T01:22:36.048Z,16.47
2017-11-22T01:25:03.658Z,18.10
2017-11-22T01:27:31.233Z,19.17
2017-11-22T01:29:58.820Z,18.43
2017-11-22T01:32:26.394Z,21.73
2017-11-22T01:34:53.980Z,17.37
2017-11-22T01:37:22.331Z,17.80
2017-11-22T01:39:49.931Z,17.67
2017-11-22T01:42:17.514Z,18.33
2017-11-22T01:44:45.064Z,17.77
2017-11-22T01:47:12.670Z,19.20
2017-11-22T01:49:40.238Z,18.03
2017-11-22T01:52:07.854Z,19.60
2017-11-22T01:54:35.470Z,17.23
2017-11-22T01:57:03.795Z,17.53
2017-11-22T01:59:31.355Z,17.37
2017-11-22T02:01:59.036Z,19.30
2017-11-22T02:04:26.601Z,19.57
2017-11-22T02:06:54.182Z,16.63
2017-11-22T02:09:21.898Z,16.30
2017-11-22T02:11:49.478Z,23.00
2017-11-22T02:14:17.153Z,16.20
2017-11-22T02:16:44.738Z,17.73
2017-11-22T02:19:12.314Z,20.40
2017-11-22T02:21:40.667Z,15.87
2017-11-22T02:24:08.221Z,15.73
2017-11-22T02:26:35.931Z,24.50
2017-11-22T02:29:03.507Z,16.93
2017-11-22T02:31:31.060Z,16.30
2017-11-22T02:33:58.637Z,15.83
2017-11-22T02:36:26.200Z,17.17
2017-11-22T02:38:53.795Z,24.50
2017-11-22T02:41:21.364Z,21.00
2017-11-22T02:43:48.961Z,19.57
2017-11-22T02:46:16.517Z,20.77
2017-11-22T02:48:44.107Z,15.70
2017-11-22T02:51:11.685Z,15.83
2017-11-22T02:53:39.265Z,20.10
2017-11-22T02:56:06.879Z,20.17
2017-11-22T02:58:34.473Z,16.47
2017-11-22T03:01:02.035Z,15.03
2017-11-22T03:03:29.648Z,13.53
2017-11-22T03:05:57.247Z,13.80
2017-11-22T03:08:24.850Z,17.50
2017-11-22T03:10:53.199Z,15.57
2017-11-22T03:13:20.748Z,17.13
2017-11-22T03:15:48.332Z,13.63
2017-11-22T03:18:15.900Z,21.97
2017-11-22T03:20:43.483Z,15.60
2017-11-22T03:23:11.080Z,16.57
2017-11-22T03:25:38.678Z,11.60
2017-11-22T03:28:06.259Z,18.83
2017-11-22T03:30:34.603Z,15.60
2017-11-22T03:33:02.227Z,16.07
2017-11-22T03:35:29.952Z,16.20
2017-11-22T03:37:57.523Z,20.13
2017-11-22T03:40:25.877Z,16.67
2017-11-22T03:42:53.458Z,15.03
2017-11-22T03:45:21.831Z,20.73
2017-11-22T03:47:49.405Z,18.00
2017-11-22T03:50:32.628Z,21.00
2017-11-22T03:53:06.476Z,20.93
2017-11-22T03:55:34.103Z,16.33
2017-11-22T03:58:06.144Z,11.87
2017-11-22T04:00:34.712Z,12.97
2017-11-22T04:03:07.994Z,12.77
2017-11-22T04:05:38.410Z,15.43
2017-11-22T04:08:07.674Z,23.60
2017-11-22T04:10:38.823Z,14.27
2017-11-22T04:13:07.170Z,13.83
2017-11-22T04:15:34.762Z,14.83
2017-11-22T04:18:03.126Z,18.43
2017-11-22T04:20:40.623Z,17.60
2017-11-22T04:23:08.971Z,18.37
2017-11-22T04:25:36.598Z,17.83
2017-11-22T04:28:04.170Z,21.67
2017-11-22T04:30:31.747Z,22.67
2017-11-22T04:32:59.485Z,19.43
2017-11-22T04:35:27.108Z,18.57
2017-11-22T04:37:54.715Z,18.23
2017-11-22T04:40:22.401Z,16.73
2017-11-22T04:42:49.964Z,17.73
2017-11-22T04:45:17.542Z,18.97
2017-11-22T04:47:45.086Z,27.10
2017-11-22T04:50:12.683Z,13.20
2017-11-22T04:52:41.012Z,19.90
2017-11-22T04:55:08.591Z,16.70
2017-11-22T04:57:36.212Z,17.47
2017-11-22T05:00:03.760Z,20.23
2017-11-22T05:02:32.111Z,18.83
2017-11-22T05:04:59.721Z,16.23
2017-11-22T05:07:27.324Z,17.97
2017-11-22T05:09:54.890Z,21.77
2017-11-22T05:12:22.492Z,12.97
2017-11-22T05:14:50.110Z,16.90
2017-11-22T05:17:17.666Z,13.83
2017-11-22T05:19:45.250Z,19.67
2017-11-22T05:22:12.864Z,18.53
2017-11-22T05:24:40.468Z,14.30
2017-11-22T05:27:08.831Z,11.77
2017-11-22T05:29:36.469Z,17.00
2017-11-22T05:32:04.882Z,18.83
2017-11-22T05:34:32.499Z,17.63
2017-11-22T05:37:00.094Z,17.93
2017-11-22T05:39:27.651Z,18.47
2017-11-22T05:41:55.246Z,15.77
2017-11-22T05:44:23.602Z,16.73
2017-11-22T05:46:51.192Z,15.97
2017-11-22T05:49:19.547Z,12.70
2017-11-22T05:51:47.131Z,12.00
2017-11-22T05:54:15.475Z,18.87
2017-11-22T05:56:43.027Z,13.13
2017-11-22T05:59:10.686Z,12.87
2017-11-22T06:01:38.285Z,16.57
2017-11-22T06:04:05.878Z,15.27
2017-11-22T06:06:33.459Z,15.23
2017-11-22T06:09:01.031Z,18.93
2017-11-22T06:11:28.595Z,13.83
2017-11-22T06:13:56.204Z,16.20
2017-11-22T06:16:24.547Z,16.77
2017-11-22T06:18:52.120Z,14.67
2017-11-22T06:21:19.698Z,16.80
2017-11-22T06:23:48.117Z,19.77
2017-11-22T06:26:15.724Z,19.07
2017-11-22T06:28:43.282Z,18.53
2017-11-22T06:31:10.875Z,18.00
2017-11-22T06:33:38.483Z,17.10
2017-11-22T06:36:06.091Z,19.57
2017-11-22T06:38:34.472Z,17.07
2017-11-22T06:41:02.804Z,17.80
2017-11-22T06:43:30.410Z,20.33
2017-11-22T06:45:58.738Z,17.43
2017-11-22T06:48:26.317Z,23.35
2017-11-22T06:50:53.969Z,21.90
2017-11-22T06:53:21.559Z,20.60
2017-11-22T06:55:49.167Z,26.53
2017-11-22T06:58:16.794Z,22.40
2017-11-22T07:00:45.121Z,21.80
2017-11-22T07:03:12.770Z,20.23
2017-11-22T07:05:40.331Z,23.47
2017-11-22T07:08:07.940Z,28.03
2017-11-22T07:10:35.500Z,20.90
2017-11-22T07:13:03.374Z,21.60
2017-11-22T07:15:30.954Z,19.53
2017-11-22T07:17:59.299Z,25.47
2017-11-22T07:20:27.143Z,23.17
2017-11-22T07:22:54.697Z,20.07
2017-11-22T07:25:22.328Z,22.30
2017-11-22T07:27:49.907Z,19.17
2017-11-22T07:30:17.502Z,22.13
2017-11-22T07:32:45.135Z,20.23
2017-11-22T07:35:12.718Z,18.60
2017-11-22T07:37:46.098Z,20.60
2017-11-22T07:40:13.664Z,20.07
2017-11-22T07:42:41.364Z,19.37
2017-11-22T07:45:09.000Z,20.80
2017-11-22T07:47:36.641Z,19.93
2017-11-22T07:50:04.210Z,20.70
2017-11-22T07:52:31.792Z,27.40
2017-11-22T07:54:59.383Z,22.37
2017-11-22T07:57:27.796Z,20.57
2017-11-22T07:59:55.352Z,22.27
2017-11-22T08:02:22.970Z,18.63
2017-11-22T08:04:50.549Z,20.47
2017-11-22T08:07:18.967Z,25.97
2017-11-22T08:09:46.526Z,23.07
2017-11-22T08:12:14.142Z,24.07
2017-11-22T08:14:41.710Z,20.30
2017-11-22T08:17:10.143Z,23.50
2017-11-22T08:19:37.735Z,24.53
2017-11-22T08:22:05.319Z,20.60
2017-11-22T08:24:33.811Z,21.30
2017-11-22T08:27:01.347Z,23.43
2017-11-22T08:29:28.948Z,20.10
2017-11-22T08:31:56.530Z,21.27
2017-11-22T08:34:24.105Z,20.53
2017-11-22T08:36:51.714Z,23.97
2017-11-22T08:39:19.330Z,23.30
2017-11-22T08:41:49.686Z,24.40
2017-11-22T08:44:17.243Z,23.63
2017-11-22T08:46:45.596Z,32.13
2017-11-22T08:49:13.171Z,25.73
2017-11-22T08:51:40.791Z,21.10
2017-11-22T08:54:14.828Z,23.40
2017-11-22T08:56:47.940Z,22.60
2017-11-22T08:59:15.500Z,24.93
2017-11-22T09:01:43.097Z,31.20
2017-11-22T09:04:10.692Z,21.33
2017-11-22T09:06:39.875Z,21.67
2017-11-22T09:09:07.453Z,25.77
2017-11-22T09:11:35.015Z,23.93
2017-11-22T09:14:02.659Z,19.70
2017-11-22T09:16:30.229Z,28.70
2017-11-22T09:18:59.695Z,22.50
2017-11-22T09:21:28.042Z,23.93
2017-11-22T09:23:55.653Z,25.53
2017-11-22T09:26:23.219Z,25.30
2017-11-22T09:28:50.838Z,25.40
2017-11-22T09:31:24.019Z,22.53
2017-11-22T09:33:57.033Z,27.47
2017-11-22T09:36:28.158Z,19.57
2017-11-22T09:38:55.805Z,24.50
2017-11-22T09:41:23.406Z,23.30
2017-11-22T09:43:51.738Z,28.67
2017-11-22T09:46:19.319Z,24.90
2017-11-22T09:48:46.937Z,24.73
2017-11-22T09:51:15.149Z,24.13
2017-11-22T09:53:42.712Z,23.80
2017-11-22T09:56:10.310Z,24.53
2017-11-22T09:58:38.663Z,22.40
2017-11-22T10:01:06.278Z,24.30
2017-11-22T10:03:33.878Z,25.73
2017-11-22T10:06:01.456Z,21.93
2017-11-22T10:08:29.826Z,25.47
2017-11-22T10:10:57.420Z,23.00
2017-11-22T10:13:25.003Z,20.83
2017-11-22T10:15:52.608Z,23.83
2017-11-22T10:18:35.075Z,25.47
2017-11-22T10:21:02.640Z,24.53
2017-11-22T10:23:30.204Z,23.17
2017-11-22T10:25:58.528Z,23.60
2017-11-22T10:28:29.585Z,23.63
2017-11-22T10:30:58.204Z,20.47
2017-11-22T10:33:26.450Z,20.50
2017-11-22T10:35:54.141Z,21.83
2017-11-22T10:38:21.716Z,28.57
2017-11-22T10:40:49.345Z,21.00
2017-11-22T10:43:16.874Z,22.10
2017-11-22T10:45:44.450Z,23.60
2017-11-22T10:48:12.796Z,29.77
2017-11-22T10:50:40.355Z,24.17
2017-11-22T10:53:08.024Z,22.20
2017-11-22T10:55:35.572Z,17.57
2017-11-22T10:58:03.165Z,26.60
2017-11-22T11:00:31.499Z,22.00
2017-11-22T11:02:59.124Z,20.23
2017-11-22T11:05:27.460Z,24.30
2017-11-22T11:07:55.694Z,17.93
2017-11-22T11:10:23.268Z,20.23
2017-11-22T11:12:50.840Z,19.10
2017-11-22T11:15:18.456Z,20.77
2017-11-22T11:17:46.812Z,21.37
2017-11-22T11:20:14.404Z,22.70
2017-11-22T11:22:42.003Z,20.03
2017-11-22T11:25:16.069Z,31.07
2017-11-22T11:27:45.262Z,23.10
2017-11-22T11:30:17.067Z,39.10
2017-11-22T11:32:49.485Z,22.60
2017-11-22T11:35:17.365Z,21.83
2017-11-22T11:37:45.697Z,19.70
2017-11-22T11:40:18.410Z,29.13
2017-11-22T11:42:46.708Z,21.47
2017-11-22T11:45:15.045Z,25.97
2017-11-22T11:47:42.624Z,28.77
2017-11-22T11:50:10.248Z,28.20
2017-11-22T11:52:43.080Z,24.20
2017-11-22T11:55:10.809Z,24.70
2017-11-22T11:57:38.424Z,27.03
2017-11-22T12:00:06.768Z,28.97
2017-11-22T12:02:40.278Z,27.67
2017-11-22T12:05:08.883Z,24.23
2017-11-22T12:07:39.679Z,23.73
2017-11-22T12:10:07.296Z,23.13
2017-11-22T12:12:35.821Z,18.40
2017-11-22T12:15:03.418Z,20.23
2017-11-22T12:17:33.928Z,17.13
2017-11-22T12:20:01.497Z,19.20
2017-11-22T12:22:48.944Z,21.10
2017-11-22T12:25:17.306Z,27.30
2017-11-22T12:27:44.950Z,22.00
2017-11-22T12:30:12.555Z,19.00
2017-11-22T12:32:43.982Z,19.70
2017-11-22T12:35:11.593Z,18.00
2017-11-22T12:37:39.155Z,24.53
2017-11-22T12:40:07.283Z,19.03
2017-11-22T12:42:34.888Z,27.23
2017-11-22T12:45:02.476Z,14.50
2017-11-22T12:47:30.047Z,18.20
2017-11-22T12:49:58.444Z,14.73
2017-11-22T12:52:26.815Z,12.80
2017-11-22T12:54:54.424Z,17.27
2017-11-22T12:57:22.011Z,16.57
2017-11-22T12:59:49.898Z,19.53
2017-11-22T13:02:18.348Z,15.13
2017-11-22T13:04:49.106Z,19.40
2017-11-22T13:07:21.235Z,15.00
2017-11-22T13:09:48.931Z,14.73
2017-11-22T13:12:16.539Z,13.60
2017-11-22T13:14:44.900Z,12.30
2017-11-22T13:17:15.271Z,12.67
2017-11-22T13:19:42.969Z,14.67
2017-11-22T13:22:10.589Z,12.53
2017-11-22T13:24:38.858Z,12.43
2017-11-22T13:27:06.460Z,15.07
2017-11-22T13:29:34.044Z,11.10
2017-11-22T13:32:01.655Z,12.87
2017-11-22T13:34:35.864Z,15.70
2017-11-22T13:37:07.256Z,15.73
2017-11-22T13:39:35.358Z,20.80
2017-11-22T13:42:02.955Z,13.17
2017-11-22T13:44:30.547Z,17.67
2017-11-22T13:46:58.128Z,11.63
2017-11-22T13:49:25.735Z,14.53
2017-11-22T13:51:53.308Z,17.20
2017-11-22T13:54:20.910Z,14.37
2017-11-22T13:56:48.512Z,10.87
2017-11-22T13:59:18.032Z,21.43
2017-11-22T14:01:47.200Z,15.93
2017-11-22T14:04:14.860Z,16.63
2017-11-22T14:06:42.597Z,20.17
2017-11-22T14:09:15.201Z,30.37
2017-11-22T14:11:44.984Z,16.00
2017-11-22T14:14:13.573Z,22.43
2017-11-22T14:16:41.156Z,15.70
2017-11-22T14:19:08.735Z,15.80
2017-11-22T14:21:37.070Z,17.60
2017-11-22T14:24:04.695Z,18.40
2017-11-22T14:26:32.293Z,17.40
2017-11-22T14:29:00.660Z,11.20
2017-11-22T14:31:28.293Z,11.60
2017-11-22T14:33:55.887Z,14.00
2017-11-22T14:36:23.506Z,16.63
2017-11-22T14:38:51.072Z,14.07
2017-11-22T14:41:18.623Z,12.97
2017-11-22T14:43:46.421Z,14.30
2017-11-22T14:46:14.039Z,17.50
2017-11-22T14:48:42.406Z,14.47
2017-11-22T14:51:10.062Z,12.73
2017-11-22T14:53:38.783Z,33.80
2017-11-22T14:56:08.958Z,29.00
2017-11-22T14:58:36.586Z,13.40
2017-11-22T15:01:04.162Z,14.17
2017-11-22T15:03:31.716Z,13.27
2017-11-22T15:05:59.292Z,11.20
2017-11-22T15:08:26.879Z,13.30
2017-11-22T15:10:54.463Z,15.73
2017-11-22T15:13:22.787Z,15.43
2017-11-22T15:15:50.362Z,13.17
2017-11-22T15:18:17.924Z,12.90
2017-11-22T15:20:45.540Z,16.90
2017-11-22T15:23:13.879Z,15.97
2017-11-22T15:25:41.467Z,17.70
2017-11-22T15:28:09.782Z,21.00
2017-11-22T15:30:37.364Z,15.43
2017-11-22T15:33:04.952Z,17.13
2017-11-22T15:35:33.300Z,16.47
2017-11-22T15:38:00.884Z,26.27
2017-11-22T15:40:28.499Z,12.40
2017-11-22T15:42:56.047Z,15.73
2017-11-22T15:45:23.636Z,11.77
2017-11-22T15:47:51.259Z,16.63
2017-11-22T15:50:19.632Z,18.60
2017-11-22T15:52:47.984Z,18.30
2017-11-22T15:55:15.568Z,16.70
2017-11-22T15:57:43.203Z,14.50
2017-11-22T16:00:10.758Z,22.03
2017-11-22T16:02:38.370Z,13.30
2017-11-22T16:05:08.268Z,13.43
2017-11-22T16:07:36.697Z,12.83
2017-11-22T16:10:04.287Z,15.87
2017-11-22T16:12:31.904Z,14.67
2017-11-22T16:15:00.373Z,16.20
2017-11-22T16:17:27.956Z,13.10
2017-11-22T16:19:55.578Z,18.57
2017-11-22T16:22:23.190Z,18.07
2017-11-22T16:24:50.791Z,15.50
2017-11-22T16:27:19.371Z,11.67
2017-11-22T16:29:46.956Z,12.13
2017-11-22T16:32:14.514Z,13.60
2017-11-22T16:34:42.105Z,18.13
2017-11-22T16:37:09.703Z,13.27
2017-11-22T16:39:37.282Z,15.00
2017-11-22T16:42:05.661Z,16.70
2017-11-22T16:44:34.041Z,14.63
2017-11-22T16:47:02.399Z,15.50
2017-11-22T16:49:29.966Z,16.57
2017-11-22T16:51:57.567Z,16.57
2017-11-22T16:54:25.165Z,14.53
2017-11-22T16:56:52.751Z,12.67
2017-11-22T16:59:20.315Z,12.33
2017-11-22T17:01:47.895Z,17.93
2017-11-22T17:04:16.267Z,14.90
2017-11-22T17:06:44.619Z,12.30
2017-11-22T17:09:12.214Z,15.37
2017-11-22T17:11:40.550Z,12.03
2017-11-22T17:14:08.129Z,17.70
2017-11-22T17:16:35.710Z,11.83
2017-11-22T17:19:04.077Z,16.53
2017-11-22T17:21:31.681Z,15.47
2017-11-22T17:23:59.255Z,14.13
2017-11-22T17:26:26.846Z,12.43
2017-11-22T17:28:54.444Z,14.00
2017-11-22T17:31:22.101Z,12.20
2017-11-22T17:33:50.448Z,13.87
2017-11-22T17:36:18.064Z,11.93
2017-11-22T17:38:45.626Z,16.00
2017-11-22T17:41:13.953Z,11.87
2017-11-22T17:43:41.565Z,13.43
2017-11-22T17:46:09.160Z,11.30
2017-11-22T17:48:36.776Z,12.10
2017-11-22T17:51:04.366Z,13.97
2017-11-22T17:53:31.979Z,12.53
2017-11-22T17:55:59.733Z,14.20
2017-11-22T17:58:27.388Z,11.90
2017-11-22T18:00:54.986Z,13.50
2017-11-22T18:03:22.755Z,12.20
2017-11-22T18:05:50.363Z,11.87
2017-11-22T18:08:17.999Z,13.57
2017-11-22T18:10:45.661Z,10.77
2017-11-22T18:13:13.679Z,10.43
2017-11-22T18:15:41.366Z,12.77
2017-11-22T18:18:09.739Z,11.80
2017-11-22T18:20:38.089Z,11.70
2017-11-22T18:23:05.708Z,13.87
2017-11-22T18:25:33.330Z,11.03
2017-11-22T18:28:00.917Z,15.60
2017-11-22T18:30:29.256Z,12.80
2017-11-22T18:32:57.365Z,9.30
2017-11-22T18:35:25.720Z,14.07
2017-11-22T18:37:53.297Z,19.10
2017-11-22T18:40:21.663Z,12.03
2017-11-22T18:42:49.268Z,12.73
2017-11-22T18:45:16.866Z,11.97
2017-11-22T18:47:44.491Z,8.80
2017-11-22T18:50:12.838Z,10.50
2017-11-22T18:52:41.184Z,11.37
2017-11-22T18:55:08.867Z,11.57
2017-11-22T18:57:36.535Z,10.03
2017-11-22T19:00:04.956Z,8.10
2017-11-22T19:02:32.544Z,10.50
2017-11-22T19:05:00.139Z,12.87
2017-11-22T19:07:28.508Z,9.00
2017-11-22T19:09:56.134Z,9.90
2017-11-22T19:12:24.096Z,12.20
2017-11-22T19:14:51.720Z,10.70
2017-11-22T19:17:19.307Z,8.03
2017-11-22T19:19:46.896Z,8.30
2017-11-22T19:22:14.518Z,11.70
2017-11-22T19:24:42.893Z,12.30
2017-11-22T19:27:11.294Z,11.53
2017-11-22T19:29:39.797Z,9.30
2017-11-22T19:32:07.392Z,10.10
2017-11-22T19:34:34.966Z,8.97
2017-11-22T19:37:03.690Z,8.40
2017-11-22T19:39:31.304Z,12.33
2017-11-22T19:41:58.922Z,10.83
2017-11-22T19:44:26.590Z,13.53
2017-11-22T19:46:54.245Z,9.57
2017-11-22T19:49:21.873Z,6.93
2017-11-22T19:51:50.217Z,8.53
2017-11-22T19:54:17.856Z,9.07
2017-11-22T19:56:45.481Z,10.57
2017-11-22T19:59:13.913Z,18.73
2017-11-22T20:01:41.646Z,15.60
2017-11-22T20:04:09.298Z,11.13
2017-11-22T20:06:36.923Z,9.27
2017-11-22T20:09:04.474Z,8.43
2017-11-22T20:11:32.064Z,10.77
2017-11-22T20:14:00.473Z,8.37
2017-11-22T20:16:28.125Z,8.97
2017-11-22T20:18:55.771Z,7.37
2017-11-22T20:21:24.257Z,7.93
2017-11-22T20:23:51.831Z,6.87
2017-11-22T20:26:19.429Z,8.47
2017-11-22T20:28:47.017Z,8.30
2017-11-22T20:31:14.899Z,11.03
2017-11-22T20:33:43.266Z,6.70
2017-11-22T20:36:11.720Z,7.80
2017-11-22T20:38:39.387Z,10.37
2017-11-22T20:41:07.067Z,8.70
2017-11-22T20:43:34.750Z,9.30
2017-11-22T20:46:03.212Z,9.73
2017-11-22T20:48:30.821Z,8.53
2017-11-22T20:50:59.527Z,11.10
2017-11-22T20:53:27.252Z,10.63
2017-11-22T20:55:55.719Z,10.00
2017-11-22T20:58:24.215Z,12.30
2017-11-22T21:00:51.787Z,9.73
2017-11-22T21:03:19.520Z,8.57
2017-11-22T21:05:47.265Z,10.60
2017-11-22T21:08:14.967Z,20.37
2017-11-22T21:10:43.354Z,11.57
2017-11-22T21:13:11.860Z,9.90
2017-11-22T21:15:40.251Z,15.83
2017-11-22T21:18:07.864Z,17.47
2017-11-22T21:20:35.530Z,12.20
2017-11-22T21:23:04.017Z,9.00
2017-11-22T21:25:33.664Z,12.60
2017-11-22T21:28:01.277Z,8.57
2017-11-22T21:30:28.874Z,10.27
2017-11-22T21:32:56.466Z,14.40
2017-11-22T21:35:24.102Z,9.60
2017-11-22T21:37:51.741Z,7.90
2017-11-22T21:40:19.494Z,12.33
2017-11-22T21:42:47.941Z,9.43
2017-11-22T21:45:15.527Z,11.43
2017-11-22T21:47:43.981Z,10.00
2017-11-22T21:50:11.656Z,17.53
2017-11-22T21:52:39.312Z,18.00
2017-11-22T21:55:06.930Z,7.73
2017-11-22T21:57:35.241Z,8.57
2017-11-22T22:00:03.449Z,11.30
2017-11-22T22:02:31.083Z,11.17
2017-11-22T22:05:00.414Z,12.13
2017-11-22T22:07:28.023Z,10.73
2017-11-22T22:09:56.221Z,8.90
2017-11-22T22:12:24.485Z,13.70
2017-11-22T22:14:53.495Z,15.63
2017-11-22T22:17:21.400Z,7.67
2017-11-22T22:19:49.110Z,7.97
2017-11-22T22:22:17.503Z,9.30
2017-11-22T22:24:45.230Z,10.10
2017-11-22T22:27:12.843Z,11.60
2017-11-22T22:29:40.424Z,12.87
2017-11-22T22:32:08.571Z,12.57
2017-11-22T22:34:36.351Z,7.93
2017-11-22T22:37:03.954Z,8.30
2017-11-22T22:39:31.531Z,9.20
2017-11-22T22:41:59.130Z,7.93
2017-11-22T22:44:26.717Z,11.57
2017-11-22T22:46:55.084Z,7.90
2017-11-22T22:49:22.670Z,7.90
2017-11-22T22:51:50.235Z,10.87
2017-11-22T22:54:18.068Z,8.63
2017-11-22T22:56:45.660Z,11.33
2017-11-22T22:59:14.028Z,6.77
2017-11-22T23:01:42.644Z,12.20
2017-11-22T23:04:10.339Z,10.10
2017-11-22T23:06:37.916Z,7.80
2017-11-22T23:09:05.936Z,8.90
2017-11-22T23:11:33.523Z,6.07
2017-11-22T23:14:01.139Z,10.63
2017-11-22T23:16:29.495Z,7.43
2017-11-22T23:18:58.332Z,12.30
2017-11-22T23:21:26.723Z,7.10
2017-11-22T23:23:54.390Z,8.50
2017-11-22T23:26:22.731Z,7.80
2017-11-22T23:28:51.092Z,8.87
2017-11-22T23:31:18.671Z,8.40
2017-11-22T23:33:47.046Z,6.13
2017-11-22T23:36:15.634Z,6.17
2017-11-22T23:38:43.971Z,9.97
2017-11-22T23:41:11.550Z,6.60
2017-11-22T23:43:39.148Z,7.07
2017-11-22T23:46:06.740Z,10.13
2017-11-22T23:48:34.324Z,8.40
2017-11-22T23:51:01.943Z,10.97
2017-11-22T23:53:29.518Z,10.10
2017-11-22T23:55:57.116Z,10.83
2017-11-22T23:58:24.683Z,6.07
